Pico Truncado, Argentina
Current Conditions -  °F | °C
As of 6:00 AM on Saturday 20 Dec 2014 (Local Time) from SAVC Reporting Station
Clear Clear  
Wind Chill: 40°   Ceiling: Unl
Heat Index: 46°   Visibility: 6mi
Dew Point: 28°   Wind: 15mph
Humidity: 50%   Direction: 270°W
Pressure: 29.56"   Gusts: NA
Location:  46.8°S, 67.97°W
Report Text: SAVC 200900Z 27013KT CAVOK 08/M02 Q1001
Loading
Personal Weather Stations






























Interactive Weather Map New forecast layout! Learn more

10-Day Weather Forecast

Advertisements
Track Severe Weather on mobile